Time;durP1;ratioP1;P1;durP2;ratioP2;P2;SDS_P1;SDS_P2;PMS_P1;PMS_P2;Temp;Humidity;BMP_temperature;BMP_pressure;BME280_temperature;BME280_humidity;BME280_pressure;Samples;Min_cycle;Max_cycle;Signal;HPM_P1;HPM_P2
2022/12/23 00:01:14;;;;;;;0.03;0.00;;;21.00;66.70;;;;;;5089864;28;20072;-51
2022/12/23 00:03:41;;;;;;;0.00;0.00;;;21.10;66.70;;;;;;5090163;28;20075;-53
2022/12/23 00:06:11;;;;;;;0.38;0.00;;;21.00;66.70;;;;;;5090052;28;20415;-54
2022/12/23 00:08:39;;;;;;;0.03;0.00;;;21.00;66.60;;;;;;5089862;28;20083;-54
2022/12/23 00:11:11;;;;;;;0.05;0.00;;;21.00;66.60;;;;;;5089628;28;20044;-52
2022/12/23 00:16:22;;;;;;;0.20;0.00;;;21.00;67.20;;;;;;5089554;28;20044;-54
2022/12/23 00:18:49;;;;;;;0.20;0.00;;;21.00;66.70;;;;;;5089723;28;20093;-53
2022/12/23 00:21:18;;;;;;;0.00;0.00;;;21.00;66.70;;;;;;5089470;28;20483;-55
2022/12/23 00:23:47;;;;;;;0.28;0.00;;;21.00;66.60;;;;;;5089515;28;20114;-51
2022/12/23 00:26:16;;;;;;;0.30;0.20;;;21.00;66.60;;;;;;5089589;28;20126;-52
2022/12/23 00:28:44;;;;;;;0.00;0.00;;;21.00;66.60;;;;;;5089477;28;20052;-53
2022/12/23 00:31:12;;;;;;;0.10;0.00;;;21.00;66.60;;;;;;5089466;28;20101;-51
2022/12/23 00:33:41;;;;;;;0.75;0.00;;;21.00;66.50;;;;;;5089936;28;20037;-49
2022/12/23 00:36:13;;;;;;;0.20;0.00;;;21.00;66.50;;;;;;5089731;28;20040;-49
2022/12/23 00:44:11;;;;;;;0.00;0.00;;;21.00;66.60;;;;;;5089137;28;20051;-53
2022/12/23 00:46:38;;;;;;;0.00;0.00;;;21.00;66.60;;;;;;5089149;28;20047;-50
2022/12/23 00:51:50;;;;;;;0.70;0.00;;;21.00;66.60;;;;;;5089460;28;20420;-52
2022/12/23 00:54:19;;;;;;;0.00;0.00;;;20.90;66.50;;;;;;5088966;28;20051;-54
2022/12/23 00:56:46;;;;;;;0.10;0.10;;;20.90;66.50;;;;;;5088928;28;20046;-53
2022/12/23 00:59:13;;;;;;;0.28;0.00;;;21.00;66.60;;;;;;5088451;28;20515;-54
2022/12/23 01:07:09;;;;;;;0.52;0.00;;;20.90;66.60;;;;;;5088341;28;20048;-52
2022/12/23 01:09:38;;;;;;;0.00;0.00;;;20.90;66.60;;;;;;5088879;28;20408;-49
2022/12/23 01:12:05;;;;;;;0.00;0.00;;;21.00;66.60;;;;;;5088941;28;20047;-53
2022/12/23 01:14:33;;;;;;;0.17;0.00;;;20.90;66.60;;;;;;5088445;28;20451;-54
2022/12/23 01:17:00;;;;;;;0.55;0.20;;;20.90;66.50;;;;;;5087364;28;20118;-51
2022/12/23 01:19:28;;;;;;;1.20;0.00;;;20.90;66.50;;;;;;5079029;28;20584;-53
2022/12/23 01:21:55;;;;;;;0.00;0.00;;;20.90;66.40;;;;;;5088583;28;20044;-52
2022/12/23 01:24:22;;;;;;;0.68;0.68;;;20.90;66.50;;;;;;5088346;28;20036;-50
2022/12/23 01:26:51;;;;;;;0.00;0.00;;;20.90;66.60;;;;;;5088489;28;20124;-50
2022/12/23 01:29:18;;;;;;;1.73;0.00;;;20.90;66.60;;;;;;5088167;28;20058;-50
2022/12/23 01:31:45;;;;;;;0.38;0.00;;;20.90;66.60;;;;;;5088573;28;20126;-53
2022/12/23 01:34:12;;;;;;;0.00;0.00;;;20.90;66.60;;;;;;5086805;28;20047;-52
2022/12/23 01:36:39;;;;;;;0.10;0.00;;;20.90;66.60;;;;;;5088292;28;20048;-53
2022/12/23 01:39:06;;;;;;;0.00;0.00;;;20.90;66.60;;;;;;5102889;28;20039;-51
2022/12/23 01:44:49;;;;;;;1.40;0.00;;;20.90;66.40;;;;;;5105927;28;20484;-50
2022/12/23 01:47:22;;;;;;;0.52;0.10;;;20.90;66.30;;;;;;5107227;28;20289;-54
2022/12/23 01:49:52;;;;;;;0.63;0.00;;;20.90;66.40;;;;;;5108759;28;20063;-51
2022/12/23 01:52:20;;;;;;;0.63;0.00;;;20.90;66.60;;;;;;5108656;28;20109;-50
2022/12/23 01:54:47;;;;;;;0.00;0.00;;;20.90;66.60;;;;;;5101603;28;20044;-50
2022/12/23 01:57:14;;;;;;;0.50;0.00;;;20.90;66.60;;;;;;5087475;28;20148;-50
2022/12/23 02:05:16;;;;;;;0.00;0.00;;;20.90;66.70;;;;;;5087797;28;20575;-50
2022/12/23 02:10:40;;;;;;;0.10;0.00;;;20.90;66.80;;;;;;4985218;28;20050;-51
2022/12/23 02:13:14;;;;;;;0.38;0.00;;;20.90;66.80;;;;;;4984635;28;20133;-50
2022/12/23 02:19:00;;;;;;;2.10;0.10;;;20.90;66.70;;;;;;4985699;28;20050;-54
2022/12/23 02:21:47;;;;;;;0.10;0.00;;;20.90;66.70;;;;;;4969504;28;20061;-53
2022/12/23 02:24:52;;;;;;;0.00;0.00;;;20.80;67.30;;;;;;4969303;28;20046;-54
2022/12/23 02:27:26;;;;;;;1.90;0.00;;;20.90;66.80;;;;;;5004343;28;20054;-51
2022/12/23 02:30:30;;;;;;;0.10;0.10;;;20.80;66.80;;;;;;5003721;28;20041;-50
2022/12/23 02:33:24;;;;;;;2.53;0.00;;;20.90;66.70;;;;;;5004588;28;20179;-52
2022/12/23 02:35:58;;;;;;;0.28;0.00;;;20.90;66.80;;;;;;5004627;28;20515;-53
2022/12/23 02:38:32;;;;;;;0.00;0.00;;;20.80;66.80;;;;;;4991934;28;20341;-54
2022/12/23 02:41:09;;;;;;;0.47;0.00;;;20.80;66.80;;;;;;4984815;28;20125;-54
2022/12/23 02:43:43;;;;;;;0.28;0.10;;;20.80;66.80;;;;;;4992237;28;20050;-53
2022/12/23 02:46:18;;;;;;;0.00;0.00;;;20.80;66.70;;;;;;4989353;28;20116;-55
2022/12/23 02:48:50;;;;;;;1.20;0.00;;;20.80;66.80;;;;;;5065032;28;20131;-54
2022/12/23 02:51:22;;;;;;;0.65;0.00;;;20.80;66.70;;;;;;5066777;28;20684;-54
2022/12/23 02:53:52;;;;;;;1.30;0.00;;;20.80;66.70;;;;;;5066779;28;20144;-54
2022/12/23 02:56:21;;;;;;;1.30;0.20;;;20.80;66.70;;;;;;5068529;28;20604;-51
2022/12/23 02:58:52;;;;;;;1.35;0.30;;;20.80;66.70;;;;;;5077200;28;20047;-52
2022/12/23 03:01:23;;;;;;;0.47;0.00;;;20.80;66.70;;;;;;5077742;28;20110;-54
2022/12/23 03:03:51;;;;;;;0.20;0.00;;;20.80;66.60;;;;;;5073959;28;20037;-55
2022/12/23 03:06:22;;;;;;;0.65;0.00;;;20.80;66.60;;;;;;5077366;28;20032;-54
2022/12/23 03:08:52;;;;;;;0.90;0.00;;;20.80;66.50;;;;;;5086826;28;20078;-53
2022/12/23 03:11:19;;;;;;;2.80;0.30;;;20.80;66.50;;;;;;5087250;28;20032;-52
2022/12/23 03:14:07;;;;;;;1.00;0.85;;;20.80;66.60;;;;;;5085445;28;20119;-50
2022/12/23 03:16:46;;;;;;;1.30;0.63;;;20.80;66.50;;;;;;5086737;28;20513;-51
2022/12/23 03:19:20;;;;;;;0.47;0.00;;;20.80;66.50;;;;;;5084729;28;20542;-52
2022/12/23 03:21:54;;;;;;;0.10;0.00;;;20.80;66.60;;;;;;5086597;28;20142;-54
2022/12/23 03:24:30;;;;;;;0.10;0.00;;;20.80;66.60;;;;;;5085914;28;20127;-52
2022/12/23 03:27:03;;;;;;;0.00;0.00;;;20.80;66.50;;;;;;5086381;28;20059;-52
2022/12/23 03:29:38;;;;;;;3.42;0.00;;;20.80;66.50;;;;;;5086629;28;20147;-54
2022/12/23 03:32:08;;;;;;;0.00;0.00;;;20.80;66.40;;;;;;5090724;28;20047;-55
2022/12/23 03:34:41;;;;;;;0.20;0.20;;;20.80;66.50;;;;;;5090234;28;20046;-54
2022/12/23 03:37:11;;;;;;;6.93;0.00;;;20.80;66.50;;;;;;5091656;28;20048;-54
2022/12/23 03:39:54;;;;;;;1.65;0.10;;;20.80;66.50;;;;;;5090070;28;20127;-53
2022/12/23 03:42:26;;;;;;;1.25;0.03;;;20.80;66.40;;;;;;5090455;28;20075;-52
2022/12/23 03:44:57;;;;;;;2.95;0.08;;;20.80;66.50;;;;;;5090372;28;20071;-50
2022/12/23 03:47:30;;;;;;;1.38;0.10;;;20.80;66.50;;;;;;5090225;28;20040;-52
2022/12/23 03:50:00;;;;;;;0.98;0.08;;;20.80;66.50;;;;;;5090395;28;20070;-53
2022/12/23 03:52:32;;;;;;;1.00;0.00;;;20.70;66.40;;;;;;5091829;28;20065;-51
2022/12/23 03:55:02;;;;;;;0.20;0.00;;;20.80;66.40;;;;;;5069774;28;20043;-50
2022/12/23 03:57:36;;;;;;;0.77;0.00;;;20.70;66.30;;;;;;5069746;28;20056;-54
2022/12/23 04:00:05;;;;;;;0.43;0.05;;;20.80;66.40;;;;;;5069936;28;20523;-52
2022/12/23 04:02:41;;;;;;;0.08;0.00;;;20.70;66.40;;;;;;5068465;28;20198;-51
2022/12/23 04:05:21;;;;;;;1.67;0.10;;;20.70;66.30;;;;;;5069932;28;20459;-53
2022/12/23 04:07:53;;;;;;;0.52;0.00;;;20.80;66.40;;;;;;5079972;28;20064;-53
2022/12/23 04:10:21;;;;;;;0.90;0.10;;;20.70;66.20;;;;;;5089473;28;20076;-54
2022/12/23 04:12:49;;;;;;;0.03;0.00;;;20.70;66.20;;;;;;5089588;28;20046;-55
2022/12/23 04:15:20;;;;;;;3.15;0.10;;;20.70;66.20;;;;;;5089765;28;20063;-53
2022/12/23 04:17:50;;;;;;;0.20;0.00;;;20.80;66.20;;;;;;5079212;28;20053;-51
2022/12/23 04:20:17;;;;;;;0.35;0.10;;;20.70;66.00;;;;;;5087852;28;20042;-52
2022/12/23 04:22:44;;;;;;;1.85;0.10;;;20.70;66.10;;;;;;5089265;28;20040;-55
2022/12/23 04:25:12;;;;;;;0.20;0.10;;;20.70;65.90;;;;;;5089281;28;20496;-52
2022/12/23 04:27:39;;;;;;;1.27;0.10;;;20.70;65.90;;;;;;5089214;28;20083;-54
2022/12/23 04:30:08;;;;;;;1.35;0.45;;;20.70;65.90;;;;;;5089358;28;20524;-52
2022/12/23 04:32:36;;;;;;;2.28;0.08;;;20.70;65.90;;;;;;5088977;28;20127;-55
2022/12/23 04:35:05;;;;;;;1.90;0.00;;;20.70;65.90;;;;;;5089314;28;20050;-52
2022/12/23 04:37:32;;;;;;;2.08;0.03;;;20.70;65.90;;;;;;5089075;28;20052;-53
2022/12/23 04:39:59;;;;;;;4.40;0.25;;;20.70;66.00;;;;;;5089393;28;20059;-53
2022/12/23 04:42:26;;;;;;;0.75;0.05;;;20.70;66.00;;;;;;5088805;28;20136;-54
2022/12/23 04:44:53;;;;;;;2.50;0.10;;;20.70;66.00;;;;;;5089632;28;20151;-55
2022/12/23 04:47:20;;;;;;;0.32;0.30;;;20.70;65.90;;;;;;5089482;28;20048;-54
2022/12/23 04:49:47;;;;;;;1.20;0.10;;;20.70;66.00;;;;;;5089820;28;20142;-55
2022/12/23 04:52:15;;;;;;;3.03;0.10;;;20.70;65.90;;;;;;5090071;28;20079;-54
2022/12/23 04:54:42;;;;;;;1.05;0.00;;;20.70;65.90;;;;;;5089362;28;20047;-51
2022/12/23 04:57:09;;;;;;;2.17;0.00;;;20.70;65.90;;;;;;5089150;28;20075;-54
2022/12/23 04:59:36;;;;;;;0.47;0.10;;;20.70;65.90;;;;;;5089021;28;20044;-57
2022/12/23 05:02:03;;;;;;;0.20;0.20;;;20.70;65.90;;;;;;5089290;28;20123;-53
2022/12/23 05:04:30;;;;;;;0.75;0.10;;;20.70;65.70;;;;;;5089588;28;20059;-55
2022/12/23 05:06:57;;;;;;;1.10;0.15;;;20.70;65.80;;;;;;5088353;28;20051;-54
2022/12/23 05:09:26;;;;;;;0.65;0.20;;;20.70;65.70;;;;;;5089194;28;20044;-54
2022/12/23 05:11:53;;;;;;;0.98;0.30;;;20.70;65.60;;;;;;5089027;28;20155;-53
2022/12/23 05:14:20;;;;;;;0.85;0.10;;;20.70;65.60;;;;;;5088547;28;20055;-50
2022/12/23 05:16:47;;;;;;;0.88;0.32;;;20.70;65.60;;;;;;5088764;28;20129;-53
2022/12/23 05:19:14;;;;;;;1.55;0.10;;;20.70;65.60;;;;;;5088441;28;20138;-52
2022/12/23 05:21:41;;;;;;;1.30;0.20;;;20.70;66.10;;;;;;5088437;28;20431;-54
2022/12/23 05:24:08;;;;;;;2.60;0.00;;;20.70;65.50;;;;;;5088538;28;20036;-51
2022/12/23 05:26:37;;;;;;;1.30;0.00;;;20.70;65.50;;;;;;5088353;28;20064;-53
2022/12/23 05:29:04;;;;;;;1.88;0.10;;;20.70;65.50;;;;;;5088214;28;20457;-50
2022/12/23 05:31:32;;;;;;;1.27;0.10;;;20.80;65.50;;;;;;5087987;28;20054;-54
2022/12/23 05:33:59;;;;;;;1.38;0.10;;;20.70;65.60;;;;;;5086241;28;20734;-53
2022/12/23 05:36:26;;;;;;;0.20;0.10;;;20.70;65.60;;;;;;5088073;28;20090;-52
2022/12/23 05:38:53;;;;;;;0.98;0.10;;;20.80;65.60;;;;;;5093184;28;20040;-52
2022/12/23 05:41:20;;;;;;;0.50;0.15;;;20.80;65.60;;;;;;5088126;28;20044;-55
2022/12/23 05:43:49;;;;;;;0.45;0.10;;;20.70;66.10;;;;;;5088393;28;20036;-55
2022/12/23 05:46:16;;;;;;;1.63;0.08;;;20.80;65.60;;;;;;5108473;28;20476;-54
2022/12/23 05:48:43;;;;;;;1.20;0.10;;;20.70;65.50;;;;;;5097115;28;20276;-53
2022/12/23 05:51:10;;;;;;;0.75;0.10;;;20.80;65.50;;;;;;5087716;28;20078;-54
2022/12/23 05:53:37;;;;;;;1.40;0.10;;;20.70;65.50;;;;;;5087543;28;20044;-54
2022/12/23 05:56:05;;;;;;;1.00;0.00;;;20.80;65.60;;;;;;5087910;28;20113;-54
2022/12/23 05:58:32;;;;;;;0.65;0.10;;;20.80;65.60;;;;;;5085913;28;20028;-54
2022/12/23 06:01:01;;;;;;;1.45;0.00;;;20.80;65.50;;;;;;5087259;28;20901;-55
2022/12/23 06:03:28;;;;;;;0.75;0.00;;;20.80;65.60;;;;;;5087346;28;20063;-55
2022/12/23 06:05:55;;;;;;;1.15;0.00;;;20.80;65.60;;;;;;5087549;28;20032;-54
2022/12/23 06:08:22;;;;;;;0.30;0.00;;;20.80;65.60;;;;;;5087616;28;20032;-55
2022/12/23 06:10:49;;;;;;;0.10;0.00;;;20.80;65.60;;;;;;5086964;28;20047;-54
2022/12/23 06:13:16;;;;;;;0.08;0.00;;;20.80;65.60;;;;;;5087211;28;20043;-54
2022/12/23 06:15:43;;;;;;;0.63;0.10;;;20.80;65.50;;;;;;5087528;28;20052;-54
2022/12/23 06:18:12;;;;;;;0.30;0.00;;;20.80;65.60;;;;;;5087173;28;20054;-54
2022/12/23 06:20:39;;;;;;;0.30;0.00;;;20.80;65.50;;;;;;5067191;28;20082;-53
2022/12/23 06:23:06;;;;;;;1.27;0.00;;;20.80;65.60;;;;;;5066964;28;20044;-52
2022/12/23 06:25:33;;;;;;;0.00;0.00;;;20.80;65.50;;;;;;5073767;28;20044;-52
2022/12/23 06:28:00;;;;;;;0.30;0.00;;;20.80;65.60;;;;;;5084791;28;20050;-53
2022/12/23 06:30:27;;;;;;;1.17;0.00;;;21.00;66.90;;;;;;5086128;28;20075;-55
2022/12/23 06:32:54;;;;;;;0.10;0.00;;;21.70;66.90;;;;;;5084056;28;20287;-52
2022/12/23 06:35:22;;;;;;;0.88;0.10;;;22.70;65.30;;;;;;5086042;28;20152;-54
2022/12/23 06:37:52;;;;;;;0.43;0.00;;;23.60;63.00;;;;;;5086147;28;20566;-50
2022/12/23 06:40:20;;;;;;;0.00;0.00;;;24.30;60.90;;;;;;5086300;28;20067;-51
2022/12/23 06:42:47;;;;;;;0.90;0.00;;;24.30;59.90;;;;;;5086460;28;20134;-65
2022/12/23 06:45:14;;;;;;;9.27;0.05;;;24.30;60.10;;;;;;5086931;28;20047;-65
2022/12/23 06:47:41;;;;;;;3.33;0.00;;;24.10;60.30;;;;;;5082662;28;20127;-63
2022/12/23 06:50:09;;;;;;;0.45;0.00;;;24.10;60.80;;;;;;5089702;28;20068;-56
2022/12/23 06:52:37;;;;;;;3.38;0.00;;;24.00;61.10;;;;;;5086564;28;20039;-62
2022/12/23 06:55:05;;;;;;;0.10;0.00;;;23.90;61.40;;;;;;5084758;28;20040;-62
2022/12/23 06:57:32;;;;;;;1.48;0.00;;;23.90;61.70;;;;;;5103706;28;20044;-56
2022/12/23 06:59:59;;;;;;;1.27;0.00;;;23.80;61.90;;;;;;5094851;28;20047;-56
2022/12/23 07:02:26;;;;;;;1.55;1.45;;;23.80;62.00;;;;;;5086441;28;20046;-56
2022/12/23 07:04:53;;;;;;;0.00;0.00;;;23.80;62.30;;;;;;5086968;28;20050;-52
2022/12/23 07:07:20;;;;;;;4.30;0.05;;;23.80;62.50;;;;;;5086753;28;20044;-49
2022/12/23 07:09:48;;;;;;;1.33;0.00;;;23.80;62.40;;;;;;5093704;28;20054;-53
2022/12/23 07:12:15;;;;;;;0.30;0.00;;;23.80;62.50;;;;;;5089385;28;20036;-51
2022/12/23 07:14:42;;;;;;;0.10;0.00;;;23.80;62.50;;;;;;5081817;28;20052;-54
2022/12/23 07:17:09;;;;;;;0.00;0.00;;;23.80;62.40;;;;;;5079270;28;20040;-55
2022/12/23 07:19:36;;;;;;;1.80;0.00;;;23.90;62.50;;;;;;5098105;28;20055;-52
2022/12/23 07:22:04;;;;;;;0.20;0.00;;;23.90;62.50;;;;;;5086504;28;20043;-56
2022/12/23 07:24:30;;;;;;;0.20;0.00;;;23.90;62.50;;;;;;5086060;28;20056;-53
2022/12/23 07:26:59;;;;;;;0.03;0.00;;;24.00;63.00;;;;;;5085712;28;20043;-55
2022/12/23 07:29:26;;;;;;;0.00;0.00;;;23.90;62.50;;;;;;5086497;28;20444;-58
2022/12/23 07:31:53;;;;;;;0.45;0.00;;;24.00;62.50;;;;;;5086082;28;20038;-60
2022/12/23 07:34:20;;;;;;;1.25;0.00;;;24.00;62.60;;;;;;5085719;28;20134;-59
2022/12/23 07:36:47;;;;;;;1.00;0.00;;;24.00;62.50;;;;;;5086300;28;20040;-58
2022/12/23 07:39:14;;;;;;;14.57;0.20;;;24.00;62.60;;;;;;5088145;28;20573;-50
2022/12/23 07:41:41;;;;;;;3.72;0.00;;;24.00;62.80;;;;;;5085325;28;20047;-51
2022/12/23 07:44:10;;;;;;;0.70;0.00;;;24.00;62.80;;;;;;5078329;28;20062;-52
2022/12/23 07:46:37;;;;;;;1.95;0.00;;;24.10;62.70;;;;;;5084275;28;20134;-51
2022/12/23 07:49:05;;;;;;;0.20;0.00;;;24.10;62.50;;;;;;5092934;28;20719;-52
2022/12/23 07:51:32;;;;;;;2.25;1.45;;;24.10;62.50;;;;;;5086108;28;20040;-50
2022/12/23 07:53:59;;;;;;;1.48;0.00;;;24.20;62.30;;;;;;5085840;28;20063;-49
2022/12/23 07:56:26;;;;;;;0.63;0.20;;;24.20;62.30;;;;;;5067951;28;20055;-55
2022/12/23 07:58:54;;;;;;;0.85;0.00;;;24.30;62.10;;;;;;5085390;28;20044;-45
2022/12/23 08:01:23;;;;;;;4.07;0.00;;;24.30;62.10;;;;;;5091217;28;20040;-50
2022/12/23 08:03:50;;;;;;;0.10;0.10;;;24.30;62.10;;;;;;5083001;28;20055;-47
2022/12/23 08:06:17;;;;;;;5.18;0.00;;;24.30;62.00;;;;;;5084464;28;20737;-47
2022/12/23 08:08:45;;;;;;;0.82;0.00;;;24.30;62.00;;;;;;5089191;28;20527;-48
2022/12/23 08:11:14;;;;;;;1.13;0.17;;;24.30;61.90;;;;;;5084505;28;20389;-49
2022/12/23 08:13:43;;;;;;;3.60;0.43;;;24.30;61.90;;;;;;5085223;28;20071;-51
2022/12/23 08:16:11;;;;;;;7.68;0.43;;;24.30;62.20;;;;;;5086009;28;20044;-48
2022/12/23 08:18:41;;;;;;;4.47;0.10;;;24.30;62.60;;;;;;5089060;28;20044;-53
2022/12/23 08:21:12;;;;;;;9.23;0.20;;;24.30;63.10;;;;;;5086235;28;20374;-55
2022/12/23 08:23:39;;;;;;;4.35;0.20;;;24.30;63.50;;;;;;5072373;28;20777;-45
2022/12/23 08:26:08;;;;;;;4.68;0.20;;;24.30;63.80;;;;;;5087896;28;20206;-55
2022/12/23 08:28:36;;;;;;;4.47;0.10;;;24.30;64.40;;;;;;5088194;28;20101;-47
2022/12/23 08:31:05;;;;;;;1.77;0.40;;;24.30;63.90;;;;;;5088935;28;20038;-47
2022/12/23 08:33:32;;;;;;;2.65;0.13;;;24.20;63.30;;;;;;5088800;28;20048;-46
2022/12/23 08:36:01;;;;;;;1.75;0.10;;;24.20;62.90;;;;;;5088952;28;20123;-49
2022/12/23 08:38:28;;;;;;;3.40;0.00;;;24.20;62.50;;;;;;5088832;28;20114;-47
2022/12/23 08:40:55;;;;;;;6.07;0.20;;;24.20;62.30;;;;;;5088907;28;20063;-47
2022/12/23 08:43:22;;;;;;;1.33;0.10;;;24.20;62.10;;;;;;5088632;28;20044;-48
2022/12/23 08:45:49;;;;;;;1.27;0.10;;;24.10;61.80;;;;;;5089200;28;20028;-48
2022/12/23 08:48:16;;;;;;;0.95;0.30;;;24.10;61.70;;;;;;5088952;28;20048;-47
2022/12/23 08:50:44;;;;;;;5.30;0.22;;;24.10;61.60;;;;;;5089533;28;20044;-48
2022/12/23 08:53:13;;;;;;;0.65;0.00;;;24.10;61.40;;;;;;5088853;28;20048;-46
2022/12/23 08:55:42;;;;;;;1.63;0.05;;;24.00;61.40;;;;;;5088816;28;20690;-47
2022/12/23 08:58:10;;;;;;;0.35;0.00;;;24.00;61.40;;;;;;5088747;28;20128;-49
2022/12/23 09:00:40;;;;;;;0.40;0.00;;;23.90;61.10;;;;;;5088337;28;20054;-48
2022/12/23 09:03:07;;;;;;;2.53;0.10;;;23.90;61.10;;;;;;5088231;28;20522;-47
2022/12/23 09:05:39;;;;;;;3.22;0.65;;;23.80;61.10;;;;;;5088541;28;20600;-46
2022/12/23 09:08:06;;;;;;;0.00;0.00;;;23.80;61.00;;;;;;5088651;28;20115;-48
2022/12/23 09:10:34;;;;;;;0.17;0.00;;;23.80;60.80;;;;;;5087298;28;20044;-47
2022/12/23 09:13:01;;;;;;;0.85;0.00;;;23.80;60.70;;;;;;5078591;28;20044;-47
2022/12/23 09:15:28;;;;;;;0.00;0.00;;;23.70;60.70;;;;;;5068505;28;20037;-47
2022/12/23 09:17:55;;;;;;;0.80;0.00;;;23.70;60.60;;;;;;5068185;28;20049;-47
2022/12/23 09:20:22;;;;;;;0.00;0.00;;;23.70;60.60;;;;;;5086280;28;20059;-47
2022/12/23 09:22:50;;;;;;;0.00;0.00;;;23.60;60.40;;;;;;5088494;28;20044;-47
2022/12/23 09:25:17;;;;;;;2.00;0.00;;;23.60;60.50;;;;;;5088092;28;20047;-47
2022/12/23 09:27:45;;;;;;;0.00;0.00;;;23.60;60.70;;;;;;5087728;28;20440;-50
2022/12/23 09:30:13;;;;;;;0.10;0.00;;;23.50;60.50;;;;;;5088153;28;20054;-51
2022/12/23 09:32:40;;;;;;;0.08;0.00;;;23.50;60.40;;;;;;5087933;28;20050;-46
2022/12/23 09:35:08;;;;;;;0.40;0.00;;;23.40;60.60;;;;;;5087603;28;20051;-48
2022/12/23 09:37:36;;;;;;;0.00;0.00;;;23.40;60.60;;;;;;5089916;28;20064;-48
2022/12/23 09:40:03;;;;;;;0.15;0.00;;;23.40;60.70;;;;;;5088037;28;20059;-47
2022/12/23 09:42:54;;;;;;;0.63;0.00;;;23.40;60.60;;;;;;5088109;28;20071;-50
2022/12/23 09:45:38;;;;;;;0.68;0.00;;;23.40;60.50;;;;;;5084747;28;20125;-46
2022/12/23 09:48:10;;;;;;;0.00;0.00;;;23.30;60.20;;;;;;5087939;28;20071;-47
2022/12/23 09:50:37;;;;;;;0.00;0.00;;;23.20;60.40;;;;;;5090077;28;20097;-46
2022/12/23 09:53:06;;;;;;;0.00;0.00;;;23.20;60.50;;;;;;5087934;28;20587;-47
2022/12/23 09:55:46;;;;;;;0.00;0.00;;;23.20;60.50;;;;;;5087563;28;20040;-49
2022/12/23 09:58:25;;;;;;;0.00;0.00;;;23.10;60.20;;;;;;5087979;28;20490;-47
2022/12/23 10:01:13;;;;;;;0.05;0.00;;;23.10;60.20;;;;;;5087956;28;20080;-48
2022/12/23 10:04:03;;;;;;;0.30;0.00;;;23.10;60.30;;;;;;5067652;28;20044;-48
2022/12/23 10:06:33;;;;;;;0.15;0.00;;;23.00;60.40;;;;;;5064105;28;20076;-47
2022/12/23 10:09:03;;;;;;;0.00;0.00;;;23.00;60.60;;;;;;5070547;28;20520;-46
2022/12/23 10:11:32;;;;;;;0.00;0.00;;;23.00;60.80;;;;;;5067260;28;20123;-48
2022/12/23 10:14:02;;;;;;;0.00;0.00;;;22.90;60.60;;;;;;5067558;28;20508;-46
2022/12/23 10:16:35;;;;;;;0.00;0.00;;;22.90;60.40;;;;;;5067511;28;20045;-48
2022/12/23 10:19:05;;;;;;;0.25;0.00;;;22.90;60.50;;;;;;5074090;28;20094;-48
2022/12/23 10:21:36;;;;;;;0.03;0.00;;;22.90;60.50;;;;;;5087545;28;20089;-47
2022/12/23 10:24:12;;;;;;;0.00;0.00;;;22.80;60.50;;;;;;5087464;28;20060;-47
2022/12/23 10:26:48;;;;;;;1.58;0.00;;;22.80;60.60;;;;;;5086892;28;20115;-49
2022/12/23 10:29:18;;;;;;;0.00;0.00;;;22.80;60.80;;;;;;5087542;28;20063;-46
2022/12/23 10:31:56;;;;;;;3.58;0.00;;;22.80;61.40;;;;;;5087231;28;20072;-48
2022/12/23 10:34:37;;;;;;;0.00;0.00;;;22.80;60.70;;;;;;5087529;28;20040;-47
2022/12/23 10:37:09;;;;;;;0.30;0.00;;;22.70;60.70;;;;;;5087124;28;20036;-48
2022/12/23 10:39:43;;;;;;;0.00;0.00;;;22.70;60.90;;;;;;5085434;28;20503;-47
2022/12/23 10:42:19;;;;;;;0.82;0.00;;;22.70;61.40;;;;;;5087212;28;20135;-51
2022/12/23 10:45:03;;;;;;;0.00;0.00;;;22.70;61.00;;;;;;5087042;28;20123;-48
2022/12/23 10:47:51;;;;;;;0.00;0.00;;;22.60;61.00;;;;;;5087104;28;20043;-47
2022/12/23 10:50:45;;;;;;;0.00;0.00;;;22.60;61.30;;;;;;5083094;28;20124;-50
2022/12/23 10:53:19;;;;;;;0.70;0.00;;;22.60;61.20;;;;;;5066580;28;20628;-47
2022/12/23 10:55:49;;;;;;;0.00;0.00;;;22.60;61.50;;;;;;5066714;28;20768;-47
2022/12/23 10:58:18;;;;;;;0.00;0.00;;;22.60;61.50;;;;;;5066778;28;20056;-48
2022/12/23 11:00:49;;;;;;;0.00;0.00;;;22.60;61.50;;;;;;5066798;28;20045;-47
2022/12/23 11:03:23;;;;;;;0.00;0.00;;;22.50;61.50;;;;;;5066937;28;20580;-47
2022/12/23 11:05:52;;;;;;;0.40;0.00;;;22.50;61.40;;;;;;5066884;28;20055;-49
2022/12/23 11:08:21;;;;;;;0.00;0.00;;;22.50;61.40;;;;;;5068476;28;20048;-47
2022/12/23 11:10:49;;;;;;;0.00;0.00;;;22.50;61.30;;;;;;5086946;28;20044;-48
2022/12/23 11:13:33;;;;;;;0.00;0.00;;;22.50;61.30;;;;;;5087095;28;20071;-48
2022/12/23 11:16:21;;;;;;;0.30;0.20;;;22.50;61.30;;;;;;5086857;28;20420;-47
2022/12/23 11:18:56;;;;;;;0.00;0.00;;;22.50;61.30;;;;;;5086901;28;20411;-51
2022/12/23 11:21:23;;;;;;;0.00;0.00;;;22.40;61.40;;;;;;5087177;28;20044;-49
2022/12/23 11:24:06;;;;;;;0.20;0.00;;;22.40;61.50;;;;;;5086587;28;20044;-49
2022/12/23 11:26:34;;;;;;;0.17;0.00;;;22.40;61.40;;;;;;5086453;28;20101;-47
2022/12/23 11:29:06;;;;;;;0.00;0.00;;;22.40;61.60;;;;;;5086846;28;20526;-47
2022/12/23 11:31:35;;;;;;;0.10;0.10;;;22.40;61.70;;;;;;5086906;28;20048;-48
2022/12/23 11:34:05;;;;;;;0.00;0.00;;;22.40;61.60;;;;;;5087001;28;20050;-48
2022/12/23 11:36:34;;;;;;;0.00;0.00;;;22.40;61.50;;;;;;5086747;28;20044;-48
2022/12/23 11:39:07;;;;;;;0.00;0.00;;;22.40;61.50;;;;;;5088340;28;20036;-50
2022/12/23 11:41:37;;;;;;;0.00;0.00;;;22.40;61.60;;;;;;5086761;28;20492;-49
2022/12/23 11:44:10;;;;;;;0.00;0.00;;;22.40;61.70;;;;;;5086857;28;20048;-46
2022/12/23 11:46:38;;;;;;;0.00;0.00;;;22.40;61.60;;;;;;5086863;28;20571;-48
2022/12/23 11:49:18;;;;;;;0.00;0.00;;;22.40;61.60;;;;;;5088678;28;20050;-50
2022/12/23 11:51:46;;;;;;;0.00;0.00;;;22.40;61.60;;;;;;5088775;28;20093;-48
2022/12/23 11:54:21;;;;;;;0.10;0.00;;;22.30;61.70;;;;;;5090368;28;20036;-47
2022/12/23 11:56:51;;;;;;;0.20;0.00;;;22.30;62.20;;;;;;5090359;28;20082;-48
2022/12/23 11:59:28;;;;;;;3.40;0.00;;;22.30;61.70;;;;;;5090219;28;20097;-47
2022/12/23 12:01:58;;;;;;;0.10;0.00;;;22.30;61.70;;;;;;5090301;28;20044;-47
2022/12/23 12:04:31;;;;;;;0.10;0.00;;;22.30;61.70;;;;;;5090260;28;20416;-52
2022/12/23 12:06:59;;;;;;;0.00;0.00;;;22.30;61.60;;;;;;5089946;28;20443;-48
2022/12/23 12:09:28;;;;;;;0.28;0.00;;;22.30;61.50;;;;;;5090169;28;20063;-47
2022/12/23 12:11:58;;;;;;;0.20;0.00;;;22.30;61.50;;;;;;5090045;28;20040;-48
2022/12/23 12:14:32;;;;;;;0.00;0.00;;;22.30;61.40;;;;;;5090091;28;20466;-50
2022/12/23 12:17:04;;;;;;;0.10;0.00;;;22.30;61.30;;;;;;5090001;28;20040;-49
2022/12/23 12:19:40;;;;;;;2.08;0.00;;;22.30;61.50;;;;;;5089929;28;20044;-46
2022/12/23 12:22:16;;;;;;;0.00;0.00;;;22.30;61.40;;;;;;5089932;28;20082;-48
2022/12/23 12:24:47;;;;;;;0.45;0.45;;;22.30;61.40;;;;;;5089819;28;20074;-46
2022/12/23 12:27:14;;;;;;;0.00;0.00;;;22.30;61.50;;;;;;5084597;28;20043;-46
2022/12/23 12:29:46;;;;;;;0.05;0.00;;;22.30;61.50;;;;;;5069540;28;20054;-48
2022/12/23 12:32:21;;;;;;;0.25;0.00;;;22.30;61.30;;;;;;5069728;28;20037;-46
2022/12/23 12:34:53;;;;;;;0.00;0.00;;;22.30;61.40;;;;;;5069301;28;20057;-49
2022/12/23 12:37:29;;;;;;;0.20;0.00;;;22.30;61.30;;;;;;5083127;28;20513;-52
2022/12/23 12:40:02;;;;;;;0.00;0.00;;;22.30;61.10;;;;;;5089004;28;20102;-51
2022/12/23 12:42:36;;;;;;;0.40;0.00;;;22.30;61.10;;;;;;5089464;28;20056;-48
2022/12/23 12:45:14;;;;;;;0.80;0.00;;;22.30;60.90;;;;;;5069234;28;20055;-48
2022/12/23 12:47:48;;;;;;;0.55;0.22;;;22.40;60.90;;;;;;5069303;28;20105;-47
2022/12/23 12:50:20;;;;;;;0.85;0.00;;;22.40;61.40;;;;;;5067651;28;20040;-49
2022/12/23 12:52:47;;;;;;;0.10;0.00;;;22.40;60.80;;;;;;5069374;28;20044;-47
2022/12/23 12:55:21;;;;;;;5.38;0.22;;;22.40;60.60;;;;;;5068984;28;20129;-47
2022/12/23 12:57:48;;;;;;;0.10;0.00;;;22.50;60.50;;;;;;5069087;28;20066;-48
2022/12/23 13:00:17;;;;;;;0.17;0.00;;;22.40;60.40;;;;;;5069123;28;20044;-47
2022/12/23 13:03:11;;;;;;;0.35;0.30;;;22.50;60.40;;;;;;5068248;28;20079;-46
2022/12/23 13:05:56;;;;;;;0.22;0.00;;;22.50;60.40;;;;;;5068966;28;20041;-47
2022/12/23 13:08:36;;;;;;;0.05;0.00;;;22.50;60.40;;;;;;5071724;28;20048;-46
2022/12/23 13:11:09;;;;;;;0.90;0.10;;;22.50;60.40;;;;;;5088864;28;20097;-47
2022/12/23 13:13:45;;;;;;;1.38;0.00;;;22.50;60.20;;;;;;5088985;28;20508;-47
2022/12/23 13:16:22;;;;;;;0.65;0.10;;;22.50;60.20;;;;;;5094379;28;20674;-47
2022/12/23 13:18:58;;;;;;;1.55;0.10;;;22.50;60.10;;;;;;5073689;28;20145;-49
2022/12/23 13:21:32;;;;;;;0.60;0.20;;;22.50;60.10;;;;;;5088954;28;20048;-48
2022/12/23 13:24:08;;;;;;;0.68;0.10;;;22.50;60.10;;;;;;5089113;28;20483;-47
2022/12/23 13:26:38;;;;;;;0.00;0.00;;;22.50;60.10;;;;;;5088598;28;20058;-47
2022/12/23 13:29:29;;;;;;;0.75;0.10;;;22.50;60.00;;;;;;5088648;28;20040;-47
2022/12/23 13:32:03;;;;;;;0.40;0.10;;;22.50;60.60;;;;;;5088639;28;20048;-47
2022/12/23 13:34:40;;;;;;;0.55;0.10;;;22.40;60.00;;;;;;5086814;28;20044;-50
2022/12/23 13:37:17;;;;;;;0.10;0.00;;;22.40;60.10;;;;;;5087364;28;20052;-49